KPDK/PDK METAR and TAF weather

Enter ICAO airport designator
Station Type Date Time Source
KPDK METAR 2019/08/21 01:53 UTC NOAA

KPDK 210153Z 19008KT 10SM SCT060 27/21 A3011 RMK AO2 SLP176 T02720211


Station Type Date Time Source
KPDK Decoded METAR 2019/08/21 01:53 UTC NOAA

Station name not available
Aug 20, 2019 - 09:53 PM EDT / 2019.08.21 0153 UTC
Wind: from the S (190 degrees) at 9 MPH (8 KT):0
Visibility: 10 mile(s):0
Sky conditions: partly cloudy
Temperature: 81.0 F (27.2 C)
Dew Point: 70.0 F (21.1 C)
Relative Humidity: 69%
Pressure (altimeter): 30.11 in. Hg (1019 hPa)
ob: KPDK 210153Z 19008KT 10SM SCT060 27/21 A3011 RMK AO2 SLP176 T02720211
cycle: 2

Station Type Date Time Source
KPDK TAF 2019/08/21 02:54 UTC NOAA

TAF
AMD KPDK 210151Z 2102/2124 19005KT P6SM SCT050 SCT250
FM211400 24004KT P6SM SCT035 SCT250
FM211900 23007KT P6SM VCSH SCT040 SCT100 PROB30 2119/2124 VRB15G25KT 4SM TSRA OVC030CB

Example: see airport list